Time;durP1;ratioP1;P1;durP2;ratioP2;P2;SDS_P1;SDS_P2;PMS_P1;PMS_P2;Temp;Humidity;BMP_temperature;BMP_pressure;BME280_temperature;BME280_humidity;BME280_pressure;Samples;Min_cycle;Max_cycle;Signal;HPM_P1;HPM_P2
2021/10/06 00:00:59;;;;;;;0.50;0.50;;;21.40;55.90;;;;;;5034666;28;20510;-66
2021/10/06 00:03:25;;;;;;;0.50;0.50;;;21.40;55.80;;;;;;5034470;28;20511;-66
2021/10/06 00:05:50;;;;;;;0.68;0.68;;;21.40;55.80;;;;;;5033162;28;20037;-66
2021/10/06 00:08:16;;;;;;;0.60;0.60;;;21.40;55.80;;;;;;5034801;28;20071;-66
2021/10/06 00:10:41;;;;;;;0.80;0.80;;;21.40;55.90;;;;;;5034476;28;20064;-66
2021/10/06 00:13:07;;;;;;;0.50;0.50;;;21.40;55.90;;;;;;5034515;28;20108;-66
2021/10/06 00:15:33;;;;;;;0.50;0.50;;;21.40;55.70;;;;;;5034433;28;20433;-66
2021/10/06 00:17:58;;;;;;;0.65;0.50;;;21.40;55.90;;;;;;5034252;28;20045;-66
2021/10/06 00:20:24;;;;;;;0.50;0.50;;;21.40;55.80;;;;;;5034259;28;20116;-66
2021/10/06 00:22:49;;;;;;;1.17;0.68;;;21.40;55.80;;;;;;5033182;28;20021;-65
2021/10/06 00:25:15;;;;;;;1.45;0.70;;;21.40;55.80;;;;;;5033715;28;20080;-66
2021/10/06 00:27:40;;;;;;;0.50;0.50;;;21.40;55.80;;;;;;5034009;28;20036;-65
2021/10/06 00:30:06;;;;;;;0.60;0.60;;;21.40;55.80;;;;;;5034330;28;20029;-65
2021/10/06 00:32:32;;;;;;;0.68;0.50;;;21.40;55.70;;;;;;5033859;28;20022;-65
2021/10/06 00:34:57;;;;;;;1.38;0.60;;;21.40;55.70;;;;;;5034010;28;20029;-65
2021/10/06 00:37:23;;;;;;;0.93;0.50;;;21.40;55.80;;;;;;5033913;28;20026;-66
2021/10/06 00:39:48;;;;;;;1.33;0.68;;;21.40;55.80;;;;;;5033709;28;20426;-65
2021/10/06 00:42:13;;;;;;;0.50;0.50;;;21.40;55.80;;;;;;5034094;28;20030;-65
2021/10/06 00:44:39;;;;;;;0.70;0.60;;;21.40;55.80;;;;;;5033925;28;20115;-65
2021/10/06 00:47:05;;;;;;;0.50;0.50;;;21.30;55.70;;;;;;5033666;28;20065;-65
2021/10/06 00:49:30;;;;;;;0.75;0.65;;;21.30;55.70;;;;;;5032179;28;20057;-65
2021/10/06 00:51:56;;;;;;;0.50;0.50;;;21.40;55.70;;;;;;5033658;28;20029;-65
2021/10/06 00:54:21;;;;;;;0.50;0.50;;;21.30;55.70;;;;;;5033646;28;20029;-65
2021/10/06 00:56:47;;;;;;;0.55;0.50;;;21.30;55.70;;;;;;5033548;28;20113;-65
2021/10/06 00:59:12;;;;;;;0.43;0.43;;;21.30;55.70;;;;;;5033540;28;20025;-65
2021/10/06 01:01:38;;;;;;;0.63;0.60;;;21.30;55.60;;;;;;5033473;28;20029;-66
2021/10/06 01:04:04;;;;;;;0.60;0.60;;;21.30;55.70;;;;;;5033640;28;20025;-65
2021/10/06 01:06:30;;;;;;;0.85;0.43;;;21.30;55.60;;;;;;5033147;28;20033;-66
2021/10/06 01:08:59;;;;;;;0.50;0.50;;;21.30;55.60;;;;;;5033672;28;20064;-66
2021/10/06 01:11:24;;;;;;;0.68;0.60;;;21.30;55.60;;;;;;5033144;28;20108;-66
2021/10/06 01:13:50;;;;;;;0.40;0.40;;;21.30;55.60;;;;;;5033399;28;20112;-66
2021/10/06 01:16:16;;;;;;;0.73;0.70;;;21.30;55.60;;;;;;5032286;28;20067;-66
2021/10/06 01:18:41;;;;;;;0.55;0.50;;;21.30;55.60;;;;;;5032181;28;20116;-67
2021/10/06 01:21:11;;;;;;;0.52;0.50;;;21.30;55.60;;;;;;5033347;28;20038;-66
2021/10/06 01:23:37;;;;;;;0.50;0.50;;;21.30;55.60;;;;;;5032901;28;20072;-66
2021/10/06 01:26:02;;;;;;;1.25;0.73;;;21.30;55.60;;;;;;5033063;28;20033;-66
2021/10/06 01:28:28;;;;;;;0.50;0.50;;;21.30;55.60;;;;;;5033029;28;20061;-66
2021/10/06 01:30:53;;;;;;;0.50;0.50;;;21.30;55.60;;;;;;5033169;28;20108;-66
2021/10/06 01:33:19;;;;;;;0.52;0.40;;;21.30;55.60;;;;;;5033118;28;20021;-66
2021/10/06 01:35:44;;;;;;;0.40;0.40;;;21.30;55.60;;;;;;5032643;28;20033;-66
2021/10/06 01:38:10;;;;;;;0.77;0.70;;;21.30;55.60;;;;;;5032798;28;20542;-66
2021/10/06 01:40:36;;;;;;;0.50;0.47;;;21.30;55.60;;;;;;5032555;28;20048;-66
2021/10/06 01:43:02;;;;;;;0.73;0.50;;;21.30;55.60;;;;;;5032840;28;20025;-66
2021/10/06 01:45:28;;;;;;;0.50;0.50;;;21.30;55.60;;;;;;5032455;28;20083;-66
2021/10/06 01:47:54;;;;;;;0.90;0.60;;;21.30;55.70;;;;;;5032577;28;20467;-66
2021/10/06 01:50:24;;;;;;;0.60;0.60;;;21.30;55.60;;;;;;5033069;28;20029;-66
2021/10/06 01:52:50;;;;;;;0.77;0.50;;;21.30;55.60;;;;;;5032304;28;20488;-66
2021/10/06 01:55:15;;;;;;;0.60;0.50;;;21.30;55.70;;;;;;5032438;28;20213;-67
2021/10/06 01:57:41;;;;;;;0.30;0.30;;;21.30;55.60;;;;;;5032261;28;20025;-67
2021/10/06 02:00:07;;;;;;;0.50;0.50;;;21.30;55.60;;;;;;5032424;28;20037;-66
2021/10/06 02:02:32;;;;;;;1.17;0.60;;;21.30;55.60;;;;;;5032165;28;20471;-67
2021/10/06 02:04:58;;;;;;;0.93;0.63;;;21.30;55.60;;;;;;5032325;28;20029;-66
2021/10/06 02:07:23;;;;;;;0.77;0.60;;;21.30;55.60;;;;;;5032326;28;20430;-66
2021/10/06 02:09:49;;;;;;;0.60;0.60;;;21.30;55.60;;;;;;5031876;28;20095;-67
2021/10/06 02:12:14;;;;;;;0.50;0.50;;;21.30;55.60;;;;;;5031989;28;20033;-66
2021/10/06 02:14:40;;;;;;;0.73;0.50;;;21.30;55.60;;;;;;5032310;28;20025;-66
2021/10/06 02:17:05;;;;;;;0.50;0.50;;;21.20;55.60;;;;;;5032374;28;20059;-66
2021/10/06 02:19:31;;;;;;;0.63;0.60;;;21.30;55.60;;;;;;5032041;28;20479;-66
2021/10/06 02:21:56;;;;;;;0.63;0.60;;;21.20;55.50;;;;;;5032260;28;20017;-66
2021/10/06 02:24:22;;;;;;;0.50;0.50;;;21.20;55.50;;;;;;5031902;28;20419;-66
2021/10/06 02:26:47;;;;;;;0.68;0.50;;;21.20;55.50;;;;;;5032100;28;20044;-67
2021/10/06 02:29:13;;;;;;;0.60;0.60;;;21.20;55.50;;;;;;5032001;28;20421;-66
2021/10/06 02:31:38;;;;;;;0.55;0.45;;;21.20;55.50;;;;;;5032114;28;20037;-66
2021/10/06 02:34:04;;;;;;;0.50;0.50;;;21.20;55.50;;;;;;5031986;28;20025;-66
2021/10/06 02:36:29;;;;;;;1.67;0.50;;;21.20;55.50;;;;;;5032267;28;20030;-66
2021/10/06 02:38:55;;;;;;;1.20;0.77;;;21.20;55.50;;;;;;5031779;28;20017;-66
2021/10/06 02:41:20;;;;;;;0.60;0.60;;;21.20;55.50;;;;;;5030918;28;20029;-67
2021/10/06 02:43:46;;;;;;;0.85;0.85;;;21.20;55.50;;;;;;5031605;28;20030;-67
2021/10/06 02:46:11;;;;;;;0.70;0.50;;;21.20;55.50;;;;;;5031980;28;20040;-67
2021/10/06 02:48:37;;;;;;;0.63;0.63;;;21.20;56.20;;;;;;5031662;28;20064;-67
2021/10/06 02:51:02;;;;;;;0.50;0.50;;;21.20;55.50;;;;;;5031856;28;20029;-66
2021/10/06 02:53:28;;;;;;;1.13;0.50;;;21.20;55.50;;;;;;5031944;28;20033;-67
2021/10/06 02:55:53;;;;;;;0.50;0.50;;;21.20;55.50;;;;;;5031803;28;20022;-66
2021/10/06 02:58:19;;;;;;;0.50;0.50;;;21.20;55.50;;;;;;5032054;28;20014;-66
2021/10/06 03:00:44;;;;;;;1.25;0.45;;;21.20;55.50;;;;;;5031523;28;20435;-67
2021/10/06 03:03:10;;;;;;;0.63;0.50;;;21.20;55.50;;;;;;5031678;28;20029;-67
2021/10/06 03:05:35;;;;;;;0.75;0.60;;;21.20;55.50;;;;;;5031427;28;20467;-66
2021/10/06 03:08:01;;;;;;;0.45;0.40;;;21.20;55.50;;;;;;5031597;28;20029;-66
2021/10/06 03:10:26;;;;;;;0.60;0.60;;;21.20;55.50;;;;;;5030610;28;20053;-66
2021/10/06 03:12:52;;;;;;;0.60;0.50;;;21.20;55.50;;;;;;5031573;28;20049;-66
2021/10/06 03:15:17;;;;;;;0.40;0.40;;;21.20;55.50;;;;;;5031547;28;20375;-65
2021/10/06 03:17:43;;;;;;;0.60;0.60;;;21.20;55.50;;;;;;5031603;28;20033;-66
2021/10/06 03:20:09;;;;;;;1.27;0.57;;;21.20;55.50;;;;;;5031817;28;20022;-66
2021/10/06 03:22:34;;;;;;;0.77;0.50;;;21.20;55.50;;;;;;5031354;28;20033;-66
2021/10/06 03:25:00;;;;;;;0.82;0.63;;;21.20;55.50;;;;;;5033665;28;20064;-66
2021/10/06 03:27:25;;;;;;;0.70;0.70;;;21.20;55.50;;;;;;5035562;28;20577;-66
2021/10/06 03:29:51;;;;;;;0.93;0.50;;;21.20;55.50;;;;;;5035254;28;20064;-67
2021/10/06 03:32:17;;;;;;;0.47;0.47;;;21.20;55.50;;;;;;5035189;28;20025;-66
2021/10/06 03:34:43;;;;;;;0.40;0.40;;;21.20;55.50;;;;;;5035211;28;20029;-66
2021/10/06 03:37:08;;;;;;;0.60;0.50;;;21.20;55.50;;;;;;5035344;28;20021;-66
2021/10/06 03:39:34;;;;;;;0.50;0.50;;;21.20;55.50;;;;;;5034974;28;20018;-66
2021/10/06 03:41:59;;;;;;;0.45;0.45;;;21.20;55.50;;;;;;5035214;28;20026;-66
2021/10/06 03:44:25;;;;;;;0.60;0.60;;;21.10;55.40;;;;;;5035086;28;20032;-66
2021/10/06 03:46:50;;;;;;;0.57;0.57;;;21.10;55.40;;;;;;5034926;28;20034;-65
2021/10/06 03:49:16;;;;;;;0.52;0.50;;;21.10;55.40;;;;;;5034994;28;20035;-66
2021/10/06 03:51:41;;;;;;;1.48;0.70;;;21.10;55.50;;;;;;5034705;28;20022;-66
2021/10/06 03:54:07;;;;;;;0.65;0.60;;;21.10;55.50;;;;;;5034781;28;20017;-66
2021/10/06 03:56:32;;;;;;;0.50;0.50;;;21.10;55.40;;;;;;5034592;28;20026;-66
2021/10/06 03:58:58;;;;;;;0.90;0.50;;;21.20;55.50;;;;;;5034530;28;20021;-66
2021/10/06 04:01:24;;;;;;;0.45;0.40;;;21.10;55.40;;;;;;5034900;28;20025;-66
2021/10/06 04:03:49;;;;;;;0.85;0.60;;;21.10;55.40;;;;;;5034440;28;20489;-66
2021/10/06 04:06:15;;;;;;;0.40;0.40;;;21.20;55.50;;;;;;5033580;28;20034;-66
2021/10/06 04:08:40;;;;;;;0.63;0.60;;;21.10;55.40;;;;;;5034585;28;20025;-66
2021/10/06 04:11:06;;;;;;;0.50;0.50;;;21.10;55.40;;;;;;5034507;28;20040;-66
2021/10/06 04:13:31;;;;;;;0.40;0.40;;;21.10;55.50;;;;;;5034635;28;20017;-66
2021/10/06 04:15:57;;;;;;;0.40;0.40;;;21.10;55.40;;;;;;5034173;28;20075;-66
2021/10/06 04:18:22;;;;;;;1.23;0.50;;;21.10;55.40;;;;;;5034539;28;20553;-66
2021/10/06 04:20:48;;;;;;;1.08;0.65;;;21.10;55.40;;;;;;5034426;28;20426;-67
2021/10/06 04:23:13;;;;;;;0.50;0.50;;;21.10;55.40;;;;;;5034487;28;20052;-66
2021/10/06 04:25:39;;;;;;;0.85;0.45;;;21.10;55.50;;;;;;5033782;28;20045;-66
2021/10/06 04:28:04;;;;;;;0.63;0.63;;;21.10;55.40;;;;;;5034347;28;20049;-66
2021/10/06 04:30:30;;;;;;;0.50;0.50;;;21.10;55.40;;;;;;5034411;28;20026;-66
2021/10/06 04:32:55;;;;;;;0.60;0.60;;;21.10;55.50;;;;;;5034183;28;20448;-66
2021/10/06 04:35:21;;;;;;;0.50;0.50;;;21.10;55.40;;;;;;5033452;28;20095;-67
2021/10/06 04:37:46;;;;;;;0.82;0.50;;;21.10;55.40;;;;;;5034117;28;20497;-66
2021/10/06 04:40:12;;;;;;;0.50;0.50;;;21.10;55.40;;;;;;5033878;28;20542;-66
2021/10/06 04:42:37;;;;;;;0.70;0.70;;;21.00;56.00;;;;;;5033762;28;20033;-66
2021/10/06 04:45:04;;;;;;;0.80;0.60;;;21.10;55.40;;;;;;5033707;28;20147;-66
2021/10/06 04:47:29;;;;;;;0.70;0.70;;;21.10;55.50;;;;;;5033706;28;20033;-67
2021/10/06 04:49:55;;;;;;;0.50;0.50;;;21.00;55.40;;;;;;5033659;28;20040;-67
2021/10/06 04:52:20;;;;;;;0.60;0.45;;;21.00;55.40;;;;;;5033917;28;20027;-67
2021/10/06 04:54:46;;;;;;;0.55;0.50;;;21.00;55.40;;;;;;5032614;28;20026;-67
2021/10/06 04:57:11;;;;;;;0.45;0.45;;;21.10;55.40;;;;;;5033497;28;20022;-66
2021/10/06 04:59:37;;;;;;;0.40;0.40;;;21.00;55.40;;;;;;5033638;28;20028;-66
2021/10/06 05:02:02;;;;;;;0.52;0.50;;;21.00;55.40;;;;;;5033412;28;20076;-66
2021/10/06 05:04:28;;;;;;;0.50;0.50;;;21.10;55.50;;;;;;5033547;28;20547;-66
2021/10/06 05:06:54;;;;;;;0.68;0.43;;;21.00;55.40;;;;;;5033448;28;20036;-66
2021/10/06 05:09:19;;;;;;;0.52;0.50;;;21.00;55.40;;;;;;5033675;28;20078;-66
2021/10/06 05:11:45;;;;;;;0.60;0.60;;;21.00;55.40;;;;;;5032870;28;20108;-66
2021/10/06 05:14:10;;;;;;;0.50;0.50;;;21.00;55.30;;;;;;5033321;28;20017;-66
2021/10/06 05:16:36;;;;;;;0.40;0.40;;;21.00;55.40;;;;;;5029659;28;20030;-66
2021/10/06 05:19:01;;;;;;;0.95;0.60;;;21.00;55.40;;;;;;5024202;28;20041;-66
2021/10/06 05:21:27;;;;;;;0.45;0.45;;;21.00;55.40;;;;;;5013430;28;20034;-66
2021/10/06 05:23:52;;;;;;;0.52;0.50;;;21.00;55.40;;;;;;5021416;28;20049;-66
2021/10/06 05:26:18;;;;;;;1.25;0.60;;;21.00;55.30;;;;;;5029065;28;20041;-67
2021/10/06 05:28:44;;;;;;;0.50;0.50;;;21.00;55.40;;;;;;5031361;28;20041;-66
2021/10/06 05:31:09;;;;;;;0.50;0.50;;;21.00;55.40;;;;;;5030972;28;20375;-68
2021/10/06 05:33:35;;;;;;;0.60;0.50;;;21.00;55.60;;;;;;5031201;28;20034;-69
2021/10/06 05:36:03;;;;;;;0.60;0.60;;;21.00;55.60;;;;;;5031303;28;20029;-69
2021/10/06 05:38:28;;;;;;;0.52;0.50;;;21.00;55.80;;;;;;5030801;28;20411;-69
2021/10/06 05:40:54;;;;;;;1.95;0.50;;;21.00;55.90;;;;;;5030370;28;20080;-69
2021/10/06 05:43:19;;;;;;;1.27;0.47;;;21.10;55.80;;;;;;5030644;28;20041;-68
2021/10/06 05:45:45;;;;;;;2.13;0.57;;;21.10;55.70;;;;;;5030178;28;20077;-69
2021/10/06 05:48:10;;;;;;;0.40;0.40;;;21.10;55.70;;;;;;5030248;28;20108;-69
2021/10/06 05:50:36;;;;;;;0.68;0.68;;;21.10;55.70;;;;;;5030247;28;20030;-69
2021/10/06 05:53:03;;;;;;;0.40;0.40;;;21.20;55.70;;;;;;5030401;28;20021;-69
2021/10/06 05:55:28;;;;;;;0.30;0.30;;;21.20;55.60;;;;;;5030841;28;20025;-69
2021/10/06 05:57:54;;;;;;;0.68;0.40;;;21.30;55.60;;;;;;5030584;28;20080;-70
